PWSweather.com
Personal Weather Stations
Station Observations
AC5CV
Greenleaf Peninsula, Waco, TX 76710

Greenleaf PeninsulaWaco, TX 76710

Lat: 31.565, Lon: -97.198

Elevation: 570

Station Type: Ambient WS2080

http://johnchamber.dyndns.info/

High Low Average
Temperature 76.3°F24.6°C 53.4°F11.9°C 64.4°F18.0°C
Dew Point 49.4°F9.7°C 42.4°F5.8°C 46.5°F8.1°C
Winds 5.8 mph 9.3 kmh Calm Calm 2.0 mph WSW3.2 kmh WSW
Wind Gusts 17.4 mph28.0 kmh -- 5.0 mph8.0 kmh
Humidity 82% 32% 55%
Pressure 29.65 in1004.1 mb 29.48 in998.3 mb -
Precipitation 0.00 in0.0 mm - -
Hour Temp Dew Point Humidity Winds Wind Gusts Pressure Precip Precip Rate Daily Precip Total
12:00 AM 60.8°F16.0°C 47.7°F8.7°C 62% 3.2 mph NW5.1 kmh NW 7.4 mph11.9 kmh 29.59 in1002.0 mb 0.00 in0.0 mm 0.00 in0.0 mm 0.00 in0.0 mm
12:05 AM 60.8°F16.0°C 47.7°F8.7°C 62% 1.4 mph WNW2.3 kmh WNW 2.5 mph4.0 kmh 29.59 in1002.0 mb 0.00 in0.0 mm 0.00 in0.0 mm 0.00 in0.0 mm
12:10 AM 60.8°F16.0°C 47.8°F8.8°C 62% 0.8 mph NW1.3 kmh NW 2.5 mph4.0 kmh 29.59 in1002.0 mb 0.00 in0.0 mm 0.00 in0.0 mm 0.00 in0.0 mm
12:15 AM 60.4°F15.8°C 48.1°F8.9°C 64% 1.0 mph NNW1.6 kmh NNW 4.9 mph7.9 kmh 29.59 in1002.0 mb 0.00 in0.0 mm 0.00 in0.0 mm 0.00 in0.0 mm
12:20 AM 60.4°F15.8°C 48.2°F9.0°C 64% 1.4 mph NNW2.3 kmh NNW 4.9 mph7.9 kmh 29.59 in1002.0 mb 0.00 in0.0 mm 0.00 in0.0 mm 0.00 in0.0 mm
12:25 AM 60.4°F15.8°C 48.2°F9.0°C 64% 2.8 mph N4.5 kmh N 7.4 mph11.9 kmh 29.59 in1002.0 mb 0.00 in0.0 mm 0.00 in0.0 mm 0.00 in0.0 mm
12:30 AM 60.4°F15.8°C 47.9°F8.8°C 63% 3.7 mph NNE6.0 kmh NNE 7.4 mph11.9 kmh 29.59 in1002.0 mb 0.00 in0.0 mm 0.00 in0.0 mm 0.00 in0.0 mm
12:35 AM 60.2°F15.7°C 48.0°F8.9°C 64% 2.0 mph NNW3.2 kmh NNW 4.9 mph7.9 kmh 29.59 in1002.0 mb 0.00 in0.0 mm 0.00 in0.0 mm 0.00 in0.0 mm
12:40 AM 60.1°F15.6°C 48.1°F8.9°C 65% 1.5 mph NNW2.4 kmh NNW 4.9 mph7.9 kmh 29.59 in1002.0 mb 0.00 in0.0 mm 0.00 in0.0 mm 0.00 in0.0 mm
12:45 AM 60.1°F15.6°C 48.3°F9.1°C 65% 1.0 mph NNE1.6 kmh NNE 2.5 mph4.0 kmh 29.59 in1002.0 mb 0.00 in0.0 mm 0.00 in0.0 mm 0.00 in0.0 mm
12:50 AM 59.9°F15.5°C 48.1°F8.9°C 65% 1.4 mph N2.3 kmh N 2.5 mph4.0 kmh 29.59 in1002.0 mb 0.00 in0.0 mm 0.00 in0.0 mm 0.00 in0.0 mm
12:55 AM 59.4°F15.2°C 47.8°F8.8°C 66% 1.6 mph NNW2.6 kmh NNW 4.9 mph7.9 kmh 29.58 in1001.7 mb 0.00 in0.0 mm 0.00 in0.0 mm 0.00 in0.0 mm
01:00 AM 59.3°F15.2°C 48.0°F8.9°C 66% 2.2 mph N3.5 kmh N 4.9 mph7.9 kmh 29.58 in1001.7 mb 0.00 in0.0 mm 0.00 in0.0 mm 0.00 in0.0 mm
01:05 AM 59.2°F15.1°C 48.0°F8.9°C 66% 1.6 mph NNE2.6 kmh NNE 4.9 mph7.9 kmh 29.58 in1001.7 mb 0.00 in0.0 mm 0.00 in0.0 mm 0.00 in0.0 mm
01:10 AM 59.1°F15.1°C 48.1°F8.9°C 67% 1.4 mph N2.3 kmh N 4.9 mph7.9 kmh 29.59 in1002.0 mb 0.00 in0.0 mm 0.00 in0.0 mm 0.00 in0.0 mm
01:15 AM 58.8°F14.9°C 47.9°F8.8°C 67% 1.0 mph NNW1.6 kmh NNW 4.9 mph7.9 kmh 29.59 in1002.0 mb 0.00 in0.0 mm 0.00 in0.0 mm 0.00 in0.0 mm
01:20 AM 58.8°F14.9°C 48.2°F9.0°C 68% 0.4 mph NW0.6 kmh NW 2.5 mph4.0 kmh 29.59 in1002.0 mb 0.00 in0.0 mm 0.00 in0.0 mm 0.00 in0.0 mm
01:25 AM 58.8°F14.9°C 48.2°F9.0°C 68% 0.7 mph NNW1.1 kmh NNW 2.5 mph4.0 kmh 29.58 in1001.7 mb 0.00 in0.0 mm 0.00 in0.0 mm 0.00 in0.0 mm
01:30 AM 58.6°F14.8°C 48.1°F8.9°C 68% 0.5 mph NE0.8 kmh NE 2.5 mph4.0 kmh 29.58 in1001.7 mb 0.00 in0.0 mm 0.00 in0.0 mm 0.00 in0.0 mm
01:35 AM 57.7°F14.3°C 47.6°F8.7°C 69% 1.4 mph NNW2.3 kmh NNW 4.9 mph7.9 kmh 29.58 in1001.7 mb 0.00 in0.0 mm 0.00 in0.0 mm 0.00 in0.0 mm
01:40 AM 57.7°F14.3°C 47.6°F8.7°C 69% 1.8 mph NNW2.9 kmh NNW 7.4 mph11.9 kmh 29.58 in1001.7 mb 0.00 in0.0 mm 0.00 in0.0 mm 0.00 in0.0 mm
01:45 AM 57.9°F14.4°C 47.8°F8.8°C 69% 2.8 mph NNW4.5 kmh NNW 7.4 mph11.9 kmh 29.58 in1001.7 mb 0.00 in0.0 mm 0.00 in0.0 mm 0.00 in0.0 mm
01:50 AM 58.1°F14.5°C 48.0°F8.9°C 69% 2.8 mph NNW4.5 kmh NNW 7.4 mph11.9 kmh 29.58 in1001.7 mb 0.00 in0.0 mm 0.00 in0.0 mm 0.00 in0.0 mm
01:55 AM 58.6°F14.8°C 48.5°F9.2°C 69% 2.7 mph NNW4.3 kmh NNW 7.4 mph11.9 kmh 29.57 in1001.4 mb 0.00 in0.0 mm 0.00 in0.0 mm 0.00 in0.0 mm
02:00 AM 58.6°F14.8°C 48.4°F9.1°C 69% 1.9 mph N3.1 kmh N 4.9 mph7.9 kmh 29.58 in1001.7 mb 0.00 in0.0 mm 0.00 in0.0 mm 0.00 in0.0 mm
02:05 AM 58.6°F14.8°C 48.3°F9.1°C 69% 0.9 mph N1.4 kmh N 2.5 mph4.0 kmh 29.59 in1002.0 mb 0.00 in0.0 mm 0.00 in0.0 mm 0.00 in0.0 mm
02:10 AM 58.5°F14.7°C 48.4°F9.1°C 69% 3.2 mph NNW5.1 kmh NNW 7.4 mph11.9 kmh 29.58 in1001.7 mb 0.00 in0.0 mm 0.00 in0.0 mm 0.00 in0.0 mm
02:15 AM 57.6°F14.2°C 47.6°F8.7°C 69% 1.2 mph NW1.9 kmh NW 2.5 mph4.0 kmh 29.58 in1001.7 mb 0.00 in0.0 mm 0.00 in0.0 mm 0.00 in0.0 mm
02:20 AM 57.6°F14.2°C 47.9°F8.8°C 70% 2.2 mph N3.5 kmh N 4.9 mph7.9 kmh 29.58 in1001.7 mb 0.00 in0.0 mm 0.00 in0.0 mm 0.00 in0.0 mm
02:25 AM 57.6°F14.2°C 47.9°F8.8°C 70% 2.4 mph NNW3.9 kmh NNW 7.4 mph11.9 kmh 29.58 in1001.7 mb 0.00 in0.0 mm 0.00 in0.0 mm 0.00 in0.0 mm
02:30 AM 57.6°F14.2°C 48.1°F8.9°C 70% 2.6 mph NNW4.2 kmh NNW 7.4 mph11.9 kmh 29.58 in1001.7 mb 0.00 in0.0 mm 0.00 in0.0 mm 0.00 in0.0 mm
02:35 AM 57.6°F14.2°C 48.3°F9.1°C 71% 3.0 mph NE4.8 kmh NE 4.9 mph7.9 kmh 29.58 in1001.7 mb 0.00 in0.0 mm 0.00 in0.0 mm 0.00 in0.0 mm
02:40 AM 57.6°F14.2°C 48.3°F9.1°C 71% 3.0 mph NNW4.8 kmh NNW 7.4 mph11.9 kmh 29.58 in1001.7 mb 0.00 in0.0 mm 0.00 in0.0 mm 0.00 in0.0 mm
02:45 AM 57.6°F14.2°C 48.3°F9.1°C 71% 2.8 mph N4.5 kmh N 9.8 mph15.8 kmh 29.58 in1001.7 mb 0.00 in0.0 mm 0.00 in0.0 mm 0.00 in0.0 mm
02:50 AM 57.6°F14.2°C 48.3°F9.1°C 71% 1.6 mph NW2.6 kmh NW 4.9 mph7.9 kmh 29.58 in1001.7 mb 0.00 in0.0 mm 0.00 in0.0 mm 0.00 in0.0 mm
02:55 AM 57.6°F14.2°C 48.3°F9.1°C 71% 1.5 mph NNW2.4 kmh NNW 4.9 mph7.9 kmh 29.58 in1001.7 mb 0.00 in0.0 mm 0.00 in0.0 mm 0.00 in0.0 mm
03:00 AM 57.6°F14.2°C 48.6°F9.2°C 72% 1.6 mph N2.6 kmh N 7.4 mph11.9 kmh 29.59 in1002.0 mb 0.00 in0.0 mm 0.00 in0.0 mm 0.00 in0.0 mm
03:05 AM 57.5°F14.2°C 48.5°F9.2°C 72% 2.8 mph N4.5 kmh N 7.4 mph11.9 kmh 29.59 in1002.0 mb 0.00 in0.0 mm 0.00 in0.0 mm 0.00 in0.0 mm
03:10 AM 57.4°F14.1°C 48.4°F9.1°C 72% 1.2 mph N1.9 kmh N 7.4 mph11.9 kmh 29.58 in1001.7 mb 0.00 in0.0 mm 0.00 in0.0 mm 0.00 in0.0 mm
03:15 AM 57.2°F14.0°C 48.3°F9.1°C 72% 0.9 mph NNE1.4 kmh NNE 2.5 mph4.0 kmh 29.58 in1001.7 mb 0.00 in0.0 mm 0.00 in0.0 mm 0.00 in0.0 mm
03:20 AM 57.2°F14.0°C 48.4°F9.1°C 72% 3.2 mph NW5.1 kmh NW 7.4 mph11.9 kmh 29.58 in1001.7 mb 0.00 in0.0 mm 0.00 in0.0 mm 0.00 in0.0 mm
03:25 AM 57.2°F14.0°C 48.6°F9.2°C 73% 2.2 mph NNW3.5 kmh NNW 7.4 mph11.9 kmh 29.58 in1001.7 mb 0.00 in0.0 mm 0.00 in0.0 mm 0.00 in0.0 mm
03:30 AM 57.1°F13.9°C 48.7°F9.3°C 73% 1.7 mph NNW2.7 kmh NNW 4.9 mph7.9 kmh 29.58 in1001.7 mb 0.00 in0.0 mm 0.00 in0.0 mm 0.00 in0.0 mm
03:35 AM 56.8°F13.8°C 48.6°F9.2°C 74% 2.1 mph NE3.4 kmh NE 4.9 mph7.9 kmh 29.58 in1001.7 mb 0.00 in0.0 mm 0.00 in0.0 mm 0.00 in0.0 mm
03:40 AM 56.8°F13.8°C 48.6°F9.2°C 74% 1.3 mph N2.1 kmh N 4.9 mph7.9 kmh 29.58 in1001.7 mb 0.00 in0.0 mm 0.00 in0.0 mm 0.00 in0.0 mm
03:45 AM 56.8°F13.8°C 48.7°F9.3°C 74% 1.0 mph NNW1.6 kmh NNW 4.9 mph7.9 kmh 29.59 in1002.0 mb 0.00 in0.0 mm 0.00 in0.0 mm 0.00 in0.0 mm
03:50 AM 56.7°F13.7°C 48.9°F9.4°C 75% 1.3 mph NNW2.1 kmh NNW 4.9 mph7.9 kmh 29.59 in1002.0 mb 0.00 in0.0 mm 0.00 in0.0 mm 0.00 in0.0 mm
03:55 AM 56.3°F13.5°C 48.3°F9.1°C 75% 1.6 mph NNW2.6 kmh NNW 4.9 mph7.9 kmh 29.59 in1002.0 mb 0.00 in0.0 mm 0.00 in0.0 mm 0.00 in0.0 mm
04:00 AM 56.3°F13.5°C 48.3°F9.1°C 74% 1.3 mph NW2.1 kmh NW 4.9 mph7.9 kmh 29.59 in1002.0 mb 0.00 in0.0 mm 0.00 in0.0 mm 0.00 in0.0 mm
04:05 AM 56.2°F13.4°C 48.3°F9.1°C 75% 0.9 mph NNW1.4 kmh NNW 4.9 mph7.9 kmh 29.58 in1001.7 mb 0.00 in0.0 mm 0.00 in0.0 mm 0.00 in0.0 mm
04:10 AM 56.1°F13.4°C 48.3°F9.1°C 75% 1.4 mph NNE2.3 kmh NNE 4.9 mph7.9 kmh 29.58 in1001.7 mb 0.00 in0.0 mm 0.00 in0.0 mm 0.00 in0.0 mm
04:15 AM 56.0°F13.3°C 48.3°F9.1°C 75% 1.6 mph NNE2.6 kmh NNE 7.4 mph11.9 kmh 29.59 in1002.0 mb 0.00 in0.0 mm 0.00 in0.0 mm 0.00 in0.0 mm
04:20 AM 55.9°F13.3°C 48.4°F9.1°C 76% 1.2 mph NW1.9 kmh NW 4.9 mph7.9 kmh 29.59 in1002.0 mb 0.00 in0.0 mm 0.00 in0.0 mm 0.00 in0.0 mm
04:25 AM 55.8°F13.2°C 48.3°F9.1°C 76% 1.0 mph NNW1.6 kmh NNW 2.5 mph4.0 kmh 29.59 in1002.0 mb 0.00 in0.0 mm 0.00 in0.0 mm 0.00 in0.0 mm
04:30 AM 55.8°F13.2°C 48.3°F9.1°C 76% 3.2 mph NNW5.1 kmh NNW 7.4 mph11.9 kmh 29.58 in1001.7 mb 0.00 in0.0 mm 0.00 in0.0 mm 0.00 in0.0 mm
04:35 AM 55.7°F13.2°C 48.2°F9.0°C 76% 1.2 mph N1.9 kmh N 4.9 mph7.9 kmh 29.58 in1001.7 mb 0.00 in0.0 mm 0.00 in0.0 mm 0.00 in0.0 mm
04:40 AM 55.5°F13.1°C 48.1°F8.9°C 76% 1.0 mph NW1.6 kmh NW 4.9 mph7.9 kmh 29.57 in1001.4 mb 0.00 in0.0 mm 0.00 in0.0 mm 0.00 in0.0 mm
04:45 AM 55.4°F13.0°C 48.3°F9.1°C 77% 1.3 mph NNW2.1 kmh NNW 4.9 mph7.9 kmh 29.58 in1001.7 mb 0.00 in0.0 mm 0.00 in0.0 mm 0.00 in0.0 mm
04:50 AM 55.4°F13.0°C 48.4°F9.1°C 77% 3.1 mph NW5.0 kmh NW 7.4 mph11.9 kmh 29.58 in1001.7 mb 0.00 in0.0 mm 0.00 in0.0 mm 0.00 in0.0 mm
04:55 AM 55.5°F13.1°C 48.6°F9.2°C 78% 2.0 mph N3.2 kmh N 4.9 mph7.9 kmh 29.58 in1001.7 mb 0.00 in0.0 mm 0.00 in0.0 mm 0.00 in0.0 mm
05:00 AM 55.5°F13.1°C 48.6°F9.2°C 78% 0.4 mph NW0.6 kmh NW 2.5 mph4.0 kmh 29.58 in1001.7 mb 0.00 in0.0 mm 0.00 in0.0 mm 0.00 in0.0 mm
05:05 AM 55.4°F13.0°C 48.8°F9.3°C 78% 2.6 mph NW4.2 kmh NW 7.4 mph11.9 kmh 29.58 in1001.7 mb 0.00 in0.0 mm 0.00 in0.0 mm 0.00 in0.0 mm
05:10 AM 55.4°F13.0°C 48.8°F9.3°C 78% 1.7 mph NNE2.7 kmh NNE 4.9 mph7.9 kmh 29.58 in1001.7 mb 0.00 in0.0 mm 0.00 in0.0 mm 0.00 in0.0 mm
05:15 AM 55.1°F12.8°C 48.5°F9.2°C 78% 1.4 mph NNW2.3 kmh NNW 4.9 mph7.9 kmh 29.58 in1001.7 mb 0.00 in0.0 mm 0.00 in0.0 mm 0.00 in0.0 mm
05:20 AM 54.9°F12.7°C 48.5°F9.2°C 79% 2.3 mph N3.7 kmh N 7.4 mph11.9 kmh 29.58 in1001.7 mb 0.00 in0.0 mm 0.00 in0.0 mm 0.00 in0.0 mm
05:25 AM 54.9°F12.7°C 48.5°F9.2°C 79% 1.2 mph NNW1.9 kmh NNW 4.9 mph7.9 kmh 29.58 in1001.7 mb 0.00 in0.0 mm 0.00 in0.0 mm 0.00 in0.0 mm
05:30 AM 54.9°F12.7°C 48.5°F9.2°C 79% 1.3 mph NNW2.1 kmh NNW 7.4 mph11.9 kmh 29.58 in1001.7 mb 0.00 in0.0 mm 0.00 in0.0 mm 0.00 in0.0 mm
05:35 AM 54.9°F12.7°C 48.5°F9.2°C 79% 1.7 mph N2.7 kmh N 4.9 mph7.9 kmh 29.59 in1002.0 mb 0.00 in0.0 mm 0.00 in0.0 mm 0.00 in0.0 mm
05:40 AM 54.8°F12.7°C 48.4°F9.1°C 79% 1.1 mph N1.8 kmh N 2.5 mph4.0 kmh 29.58 in1001.7 mb 0.00 in0.0 mm 0.00 in0.0 mm 0.00 in0.0 mm
05:45 AM 54.7°F12.6°C 48.3°F9.1°C 79% 1.8 mph N2.9 kmh N 7.4 mph11.9 kmh 29.59 in1002.0 mb 0.00 in0.0 mm 0.00 in0.0 mm 0.00 in0.0 mm
05:50 AM 54.7°F12.6°C 48.3°F9.1°C 79% 1.8 mph N2.9 kmh N 7.4 mph11.9 kmh 29.59 in1002.0 mb 0.00 in0.0 mm 0.00 in0.0 mm 0.00 in0.0 mm
05:55 AM 54.6°F12.6°C 48.2°F9.0°C 79% 1.9 mph NW3.1 kmh NW 4.9 mph7.9 kmh 29.59 in1002.0 mb 0.00 in0.0 mm 0.00 in0.0 mm 0.00 in0.0 mm
06:00 AM 54.5°F12.5°C 48.1°F8.9°C 79% 1.3 mph NW2.1 kmh NW 4.9 mph7.9 kmh 29.59 in1002.0 mb 0.00 in0.0 mm 0.00 in0.0 mm 0.00 in0.0 mm
06:05 AM 54.5°F12.5°C 48.1°F8.9°C 79% 2.5 mph NNW4.0 kmh NNW 9.8 mph15.8 kmh 29.59 in1002.0 mb 0.00 in0.0 mm 0.00 in0.0 mm 0.00 in0.0 mm
06:10 AM 54.5°F12.5°C 48.1°F8.9°C 79% 2.8 mph NNW4.5 kmh NNW 4.9 mph7.9 kmh 29.59 in1002.0 mb 0.00 in0.0 mm 0.00 in0.0 mm 0.00 in0.0 mm
06:15 AM 54.5°F12.5°C 47.8°F8.8°C 78% 1.7 mph NNW2.7 kmh NNW 2.5 mph4.0 kmh 29.59 in1002.0 mb 0.00 in0.0 mm 0.00 in0.0 mm 0.00 in0.0 mm
06:20 AM 54.5°F12.5°C 47.8°F8.8°C 78% 1.7 mph NNW2.7 kmh NNW 4.9 mph7.9 kmh 29.60 in1002.4 mb 0.00 in0.0 mm 0.00 in0.0 mm 0.00 in0.0 mm
06:25 AM 54.5°F12.5°C 47.8°F8.8°C 78% 1.6 mph N2.6 kmh N 7.4 mph11.9 kmh 29.60 in1002.4 mb 0.00 in0.0 mm 0.00 in0.0 mm 0.00 in0.0 mm
06:30 AM 54.5°F12.5°C 47.8°F8.8°C 78% 2.5 mph N4.0 kmh N 7.4 mph11.9 kmh 29.60 in1002.4 mb 0.00 in0.0 mm 0.00 in0.0 mm 0.00 in0.0 mm
06:35 AM 54.4°F12.4°C 47.7°F8.7°C 78% 0.8 mph NNW1.3 kmh NNW 4.9 mph7.9 kmh 29.60 in1002.4 mb 0.00 in0.0 mm 0.00 in0.0 mm 0.00 in0.0 mm
06:40 AM 54.1°F12.3°C 47.4°F8.6°C 78% 1.8 mph N2.9 kmh N 4.9 mph7.9 kmh 29.60 in1002.4 mb 0.00 in0.0 mm 0.00 in0.0 mm 0.00 in0.0 mm
06:45 AM 54.1°F12.3°C 47.4°F8.6°C 78% 2.8 mph N4.5 kmh N 7.4 mph11.9 kmh 29.60 in1002.4 mb 0.00 in0.0 mm 0.00 in0.0 mm 0.00 in0.0 mm
06:50 AM 54.1°F12.3°C 47.4°F8.6°C 78% 2.1 mph NNW3.4 kmh NNW 7.4 mph11.9 kmh 29.60 in1002.4 mb 0.00 in0.0 mm 0.00 in0.0 mm 0.00 in0.0 mm
06:55 AM 54.1°F12.3°C 47.4°F8.6°C 78% 2.2 mph NNW3.5 kmh NNW 4.9 mph7.9 kmh 29.60 in1002.4 mb 0.00 in0.0 mm 0.00 in0.0 mm 0.00 in0.0 mm
07:00 AM 54.1°F12.3°C 47.4°F8.6°C 78% 1.7 mph NNW2.7 kmh NNW 4.9 mph7.9 kmh 29.61 in1002.7 mb 0.00 in0.0 mm 0.00 in0.0 mm 0.00 in0.0 mm
07:05 AM 54.0°F12.2°C 47.5°F8.6°C 79% 3.0 mph N4.8 kmh N 7.4 mph11.9 kmh 29.60 in1002.4 mb 0.00 in0.0 mm 0.00 in0.0 mm 0.00 in0.0 mm
07:10 AM 54.0°F12.2°C 47.6°F8.7°C 79% 1.2 mph NNW1.9 kmh NNW 4.9 mph7.9 kmh 29.60 in1002.4 mb 0.00 in0.0 mm 0.00 in0.0 mm 0.00 in0.0 mm
07:15 AM 53.9°F12.2°C 47.6°F8.7°C 79% 1.5 mph NW2.4 kmh NW 4.9 mph7.9 kmh 29.61 in1002.7 mb 0.00 in0.0 mm 0.00 in0.0 mm 0.00 in0.0 mm
07:20 AM 53.6°F12.0°C 47.6°F8.7°C 80% 1.4 mph N2.3 kmh N 4.9 mph7.9 kmh 29.61 in1002.7 mb 0.00 in0.0 mm 0.00 in0.0 mm 0.00 in0.0 mm
07:25 AM 53.6°F12.0°C 47.7°F8.7°C 80% 1.4 mph NW2.3 kmh NW 4.9 mph7.9 kmh 29.61 in1002.7 mb 0.00 in0.0 mm 0.00 in0.0 mm 0.00 in0.0 mm
07:30 AM 53.5°F11.9°C 48.0°F8.9°C 82% 0.3 mph NNW0.5 kmh NNW 2.5 mph4.0 kmh 29.61 in1002.7 mb 0.00 in0.0 mm 0.00 in0.0 mm 0.00 in0.0 mm
07:35 AM 53.4°F11.9°C 48.1°F8.9°C 82% 1.6 mph NNW2.6 kmh NNW 4.9 mph7.9 kmh 29.62 in1003.0 mb 0.00 in0.0 mm 0.00 in0.0 mm 0.00 in0.0 mm
07:40 AM 53.6°F12.0°C 48.2°F9.0°C 82% 1.2 mph N1.9 kmh N 4.9 mph7.9 kmh 29.61 in1002.7 mb 0.00 in0.0 mm 0.00 in0.0 mm 0.00 in0.0 mm
07:45 AM 53.6°F12.0°C 48.2°F9.0°C 82% 2.4 mph NW3.9 kmh NW 7.4 mph11.9 kmh 29.62 in1003.0 mb 0.00 in0.0 mm 0.00 in0.0 mm 0.00 in0.0 mm
07:50 AM 53.6°F12.0°C 48.2°F9.0°C 82% 1.5 mph NNW2.4 kmh NNW 4.9 mph7.9 kmh 29.62 in1003.0 mb 0.00 in0.0 mm 0.00 in0.0 mm 0.00 in0.0 mm
07:55 AM 53.7°F12.1°C 48.3°F9.1°C 82% 2.4 mph NNW3.9 kmh NNW 4.9 mph7.9 kmh 29.61 in1002.7 mb 0.00 in0.0 mm 0.00 in0.0 mm 0.00 in0.0 mm
08:00 AM 54.0°F12.2°C 48.3°F9.1°C 81% 0.9 mph NW1.4 kmh NW 4.9 mph7.9 kmh 29.62 in1003.0 mb 0.00 in0.0 mm 0.00 in0.0 mm 0.00 in0.0 mm
08:05 AM 54.0°F12.2°C 48.0°F8.9°C 80% 2.7 mph N4.3 kmh N 4.9 mph7.9 kmh 29.62 in1003.0 mb 0.00 in0.0 mm 0.00 in0.0 mm 0.00 in0.0 mm
08:10 AM 54.0°F12.2°C 47.7°F8.7°C 79% 2.7 mph N4.3 kmh N 4.9 mph7.9 kmh 29.61 in1002.7 mb 0.00 in0.0 mm 0.00 in0.0 mm 0.00 in0.0 mm
08:15 AM 54.1°F12.3°C 47.7°F8.7°C 79% 1.4 mph NW2.3 kmh NW 2.5 mph4.0 kmh 29.62 in1003.0 mb 0.00 in0.0 mm 0.00 in0.0 mm 0.00 in0.0 mm
08:20 AM 54.5°F12.5°C 47.8°F8.8°C 78% 3.1 mph N5.0 kmh N 7.4 mph11.9 kmh 29.62 in1003.0 mb 0.00 in0.0 mm 0.00 in0.0 mm 0.00 in0.0 mm
08:25 AM 54.5°F12.5°C 47.6°F8.7°C 78% 1.6 mph NW2.6 kmh NW 4.9 mph7.9 kmh 29.62 in1003.0 mb 0.00 in0.0 mm 0.00 in0.0 mm 0.00 in0.0 mm
08:30 AM 54.5°F12.5°C 47.2°F8.4°C 76% 3.4 mph NNW5.5 kmh NNW 9.8 mph15.8 kmh 29.62 in1003.0 mb 0.00 in0.0 mm 0.00 in0.0 mm 0.00 in0.0 mm
08:35 AM 54.6°F12.6°C 47.4°F8.6°C 77% 1.5 mph NNW2.4 kmh NNW 4.9 mph7.9 kmh 29.62 in1003.0 mb 0.00 in0.0 mm 0.00 in0.0 mm 0.00 in0.0 mm
08:40 AM 55.4°F13.0°C 47.3°F8.5°C 74% 2.8 mph NNE4.5 kmh NNE 4.9 mph7.9 kmh 29.62 in1003.0 mb 0.00 in0.0 mm 0.00 in0.0 mm 0.00 in0.0 mm
08:45 AM 55.4°F13.0°C 46.9°F8.3°C 73% 4.5 mph N7.2 kmh N 7.4 mph11.9 kmh 29.62 in1003.0 mb 0.00 in0.0 mm 0.00 in0.0 mm 0.00 in0.0 mm
08:50 AM 55.4°F13.0°C 46.8°F8.2°C 73% 2.5 mph NNW4.0 kmh NNW 4.9 mph7.9 kmh 29.62 in1003.0 mb 0.00 in0.0 mm 0.00 in0.0 mm 0.00 in0.0 mm
08:55 AM 55.4°F13.0°C 46.6°F8.1°C 72% 2.8 mph N4.5 kmh N 7.4 mph11.9 kmh 29.62 in1003.0 mb 0.00 in0.0 mm 0.00 in0.0 mm 0.00 in0.0 mm
09:00 AM 56.0°F13.3°C 46.3°F7.9°C 70% 4.2 mph N6.8 kmh N 9.8 mph15.8 kmh 29.62 in1003.0 mb 0.00 in0.0 mm 0.00 in0.0 mm 0.00 in0.0 mm
09:05 AM 56.2°F13.4°C 45.8°F7.7°C 68% 1.3 mph N2.1 kmh N 7.4 mph11.9 kmh 29.63 in1003.4 mb 0.00 in0.0 mm 0.00 in0.0 mm 0.00 in0.0 mm
09:10 AM 56.7°F13.7°C 45.8°F7.7°C 67% 2.7 mph N4.3 kmh N 7.4 mph11.9 kmh 29.63 in1003.4 mb 0.00 in0.0 mm 0.00 in0.0 mm 0.00 in0.0 mm
09:15 AM 57.1°F13.9°C 45.8°F7.7°C 66% 1.6 mph NW2.6 kmh NW 7.4 mph11.9 kmh 29.63 in1003.4 mb 0.00 in0.0 mm 0.00 in0.0 mm 0.00 in0.0 mm
09:20 AM 58.6°F14.8°C 46.6°F8.1°C 64% 4.7 mph N7.6 kmh N 7.4 mph11.9 kmh 29.64 in1003.7 mb 0.00 in0.0 mm 0.00 in0.0 mm 0.00 in0.0 mm
09:25 AM 58.6°F14.8°C 46.6°F8.1°C 64% 3.6 mph N5.8 kmh N 7.4 mph11.9 kmh 29.64 in1003.7 mb 0.00 in0.0 mm 0.00 in0.0 mm 0.00 in0.0 mm
09:30 AM 58.6°F14.8°C 46.4°F8.0°C 64% 4.0 mph N6.4 kmh N 7.4 mph11.9 kmh 29.63 in1003.4 mb 0.00 in0.0 mm 0.00 in0.0 mm 0.00 in0.0 mm
09:35 AM 58.6°F14.8°C 46.3°F7.9°C 64% 3.4 mph NNW5.5 kmh NNW 7.4 mph11.9 kmh 29.64 in1003.7 mb 0.00 in0.0 mm 0.00 in0.0 mm 0.00 in0.0 mm
09:40 AM 59.0°F15.0°C 46.4°F8.0°C 63% 4.3 mph N6.9 kmh N 7.4 mph11.9 kmh 29.64 in1003.7 mb 0.00 in0.0 mm 0.00 in0.0 mm 0.00 in0.0 mm
09:45 AM 59.0°F15.0°C 46.5°F8.1°C 63% 2.1 mph NW3.4 kmh NW 4.9 mph7.9 kmh 29.64 in1003.7 mb 0.00 in0.0 mm 0.00 in0.0 mm 0.00 in0.0 mm
09:50 AM 59.1°F15.1°C 45.9°F7.7°C 62% 2.9 mph NNW4.7 kmh NNW 7.4 mph11.9 kmh 29.64 in1003.7 mb 0.00 in0.0 mm 0.00 in0.0 mm 0.00 in0.0 mm
09:55 AM 59.2°F15.1°C 45.5°F7.5°C 60% 4.2 mph N6.8 kmh N 7.4 mph11.9 kmh 29.64 in1003.7 mb 0.00 in0.0 mm 0.00 in0.0 mm 0.00 in0.0 mm
10:00 AM 60.3°F15.7°C 46.3°F7.9°C 60% 2.2 mph N3.5 kmh N 4.9 mph7.9 kmh 29.65 in1004.1 mb 0.00 in0.0 mm 0.00 in0.0 mm 0.00 in0.0 mm
10:05 AM 60.1°F15.6°C 45.9°F7.7°C 60% 3.9 mph N6.3 kmh N 9.8 mph15.8 kmh 29.64 in1003.7 mb 0.00 in0.0 mm 0.00 in0.0 mm 0.00 in0.0 mm
10:10 AM 60.2°F15.7°C 45.4°F7.4°C 58% 3.7 mph N6.0 kmh N 7.4 mph11.9 kmh 29.64 in1003.7 mb 0.00 in0.0 mm 0.00 in0.0 mm 0.00 in0.0 mm
10:15 AM 60.3°F15.7°C 45.0°F7.2°C 57% 4.7 mph NNW7.6 kmh NNW 12.3 mph19.8 kmh 29.64 in1003.7 mb 0.00 in0.0 mm 0.00 in0.0 mm 0.00 in0.0 mm
10:20 AM 60.7°F15.9°C 44.9°F7.2°C 56% 2.5 mph N4.0 kmh N 7.4 mph11.9 kmh 29.64 in1003.7 mb 0.00 in0.0 mm 0.00 in0.0 mm 0.00 in0.0 mm
10:25 AM 60.9°F16.1°C 44.9°F7.2°C 56% 3.1 mph N5.0 kmh N 7.4 mph11.9 kmh 29.64 in1003.7 mb 0.00 in0.0 mm 0.00 in0.0 mm 0.00 in0.0 mm
10:30 AM 61.2°F16.2°C 43.7°F6.5°C 53% 2.9 mph NNE4.7 kmh NNE 9.8 mph15.8 kmh 29.64 in1003.7 mb 0.00 in0.0 mm 0.00 in0.0 mm 0.00 in0.0 mm
10:35 AM 61.4°F16.3°C 43.2°F6.2°C 51% 4.0 mph N6.4 kmh N 9.8 mph15.8 kmh 29.64 in1003.7 mb 0.00 in0.0 mm 0.00 in0.0 mm 0.00 in0.0 mm
10:40 AM 61.8°F16.6°C 43.8°F6.6°C 52% 2.3 mph N3.7 kmh N 4.9 mph7.9 kmh 29.63 in1003.4 mb 0.00 in0.0 mm 0.00 in0.0 mm 0.00 in0.0 mm
10:45 AM 62.1°F16.7°C 43.8°F6.6°C 51% 4.7 mph NW7.6 kmh NW 7.4 mph11.9 kmh 29.64 in1003.7 mb 0.00 in0.0 mm 0.00 in0.0 mm 0.00 in0.0 mm
10:50 AM 62.2°F16.8°C 43.3°F6.3°C 50% 2.8 mph NNW4.5 kmh NNW 7.4 mph11.9 kmh 29.63 in1003.4 mb 0.00 in0.0 mm 0.00 in0.0 mm 0.00 in0.0 mm
10:55 AM 62.4°F16.9°C 43.5°F6.4°C 50% 3.5 mph N5.6 kmh N 12.3 mph19.8 kmh 29.63 in1003.4 mb 0.00 in0.0 mm 0.00 in0.0 mm 0.00 in0.0 mm
11:00 AM 63.1°F17.3°C 43.7°F6.5°C 49% 4.8 mph NE7.7 kmh NE 7.4 mph11.9 kmh 29.63 in1003.4 mb 0.00 in0.0 mm 0.00 in0.0 mm 0.00 in0.0 mm
11:05 AM 63.5°F17.5°C 44.0°F6.7°C 49% 4.1 mph N6.6 kmh N 9.8 mph15.8 kmh 29.62 in1003.0 mb 0.00 in0.0 mm 0.00 in0.0 mm 0.00 in0.0 mm
11:10 AM 63.5°F17.5°C 44.3°F6.8°C 50% 4.2 mph NNW6.8 kmh NNW 9.8 mph15.8 kmh 29.63 in1003.4 mb 0.00 in0.0 mm 0.00 in0.0 mm 0.00 in0.0 mm
11:15 AM 63.6°F17.6°C 44.9°F7.2°C 50% 1.6 mph NNE2.6 kmh NNE 4.9 mph7.9 kmh 29.62 in1003.0 mb 0.00 in0.0 mm 0.00 in0.0 mm 0.00 in0.0 mm
11:20 AM 64.1°F17.8°C 44.8°F7.1°C 50% 2.8 mph NW4.5 kmh NW 4.9 mph7.9 kmh 29.62 in1003.0 mb 0.00 in0.0 mm 0.00 in0.0 mm 0.00 in0.0 mm
11:25 AM 64.4°F18.0°C 45.1°F7.3°C 50% 3.2 mph N5.1 kmh N 7.4 mph11.9 kmh 29.63 in1003.4 mb 0.00 in0.0 mm 0.00 in0.0 mm 0.00 in0.0 mm
11:30 AM 64.6°F18.1°C 44.9°F7.2°C 49% 2.9 mph N4.7 kmh N 4.9 mph7.9 kmh 29.63 in1003.4 mb 0.00 in0.0 mm 0.00 in0.0 mm 0.00 in0.0 mm
11:35 AM 64.6°F18.1°C 44.4°F6.9°C 48% 4.3 mph N6.9 kmh N 9.8 mph15.8 kmh 29.63 in1003.4 mb 0.00 in0.0 mm 0.00 in0.0 mm 0.00 in0.0 mm
11:40 AM 64.8°F18.2°C 44.4°F6.9°C 48% 4.1 mph N6.6 kmh N 9.8 mph15.8 kmh 29.62 in1003.0 mb 0.00 in0.0 mm 0.00 in0.0 mm 0.00 in0.0 mm
11:45 AM 64.9°F18.3°C 44.8°F7.1°C 48% 3.5 mph NW5.6 kmh NW 7.4 mph11.9 kmh 29.62 in1003.0 mb 0.00 in0.0 mm 0.00 in0.0 mm 0.00 in0.0 mm
11:50 AM 65.2°F18.4°C 43.8°F6.6°C 46% 3.5 mph NE5.6 kmh NE 9.8 mph15.8 kmh 29.62 in1003.0 mb 0.00 in0.0 mm 0.00 in0.0 mm 0.00 in0.0 mm
11:55 AM 65.4°F18.6°C 43.7°F6.5°C 45% 3.8 mph NW6.1 kmh NW 7.4 mph11.9 kmh 29.62 in1003.0 mb 0.00 in0.0 mm 0.00 in0.0 mm 0.00 in0.0 mm
12:00 PM 66.1°F18.9°C 43.9°F6.6°C 45% 5.2 mph N8.4 kmh N 9.8 mph15.8 kmh 29.62 in1003.0 mb 0.00 in0.0 mm 0.00 in0.0 mm 0.00 in0.0 mm
12:05 PM 66.6°F19.2°C 44.0°F6.7°C 44% 3.7 mph NNW6.0 kmh NNW 7.4 mph11.9 kmh 29.62 in1003.0 mb 0.00 in0.0 mm 0.00 in0.0 mm 0.00 in0.0 mm
12:10 PM 66.6°F19.2°C 43.8°F6.6°C 44% 2.3 mph NNW3.7 kmh NNW 4.9 mph7.9 kmh 29.61 in1002.7 mb 0.00 in0.0 mm 0.00 in0.0 mm 0.00 in0.0 mm
12:15 PM 66.8°F19.3°C 43.8°F6.6°C 43% 3.7 mph N6.0 kmh N 9.8 mph15.8 kmh 29.61 in1002.7 mb 0.00 in0.0 mm 0.00 in0.0 mm 0.00 in0.0 mm
12:20 PM 67.3°F19.6°C 43.6°F6.4°C 42% 4.8 mph NW7.7 kmh NW 7.4 mph11.9 kmh 29.61 in1002.7 mb 0.00 in0.0 mm 0.00 in0.0 mm 0.00 in0.0 mm
12:25 PM 67.9°F19.9°C 44.5°F6.9°C 43% 3.2 mph N5.1 kmh N 9.8 mph15.8 kmh 29.61 in1002.7 mb 0.00 in0.0 mm 0.00 in0.0 mm 0.00 in0.0 mm
12:30 PM 67.9°F19.9°C 44.2°F6.8°C 42% 5.2 mph NW8.4 kmh NW 9.8 mph15.8 kmh 29.61 in1002.7 mb 0.00 in0.0 mm 0.00 in0.0 mm 0.00 in0.0 mm
12:35 PM 68.0°F20.0°C 44.5°F6.9°C 43% 4.3 mph NNW6.9 kmh NNW 7.4 mph11.9 kmh 29.60 in1002.4 mb 0.00 in0.0 mm 0.00 in0.0 mm 0.00 in0.0 mm
12:40 PM 68.2°F20.1°C 44.1°F6.7°C 42% 4.4 mph N7.1 kmh N 9.8 mph15.8 kmh 29.60 in1002.4 mb 0.00 in0.0 mm 0.00 in0.0 mm 0.00 in0.0 mm
12:45 PM 68.5°F20.3°C 44.3°F6.8°C 42% 3.3 mph N5.3 kmh N 7.4 mph11.9 kmh 29.60 in1002.4 mb 0.00 in0.0 mm 0.00 in0.0 mm 0.00 in0.0 mm
12:50 PM 68.5°F20.3°C 44.3°F6.8°C 42% 2.5 mph NNW4.0 kmh NNW 9.8 mph15.8 kmh 29.59 in1002.0 mb 0.00 in0.0 mm 0.00 in0.0 mm 0.00 in0.0 mm
12:55 PM 68.6°F20.3°C 43.8°F6.6°C 41% 3.4 mph NNW5.5 kmh NNW 7.4 mph11.9 kmh 29.59 in1002.0 mb 0.00 in0.0 mm 0.00 in0.0 mm 0.00 in0.0 mm
01:00 PM 69.1°F20.6°C 43.7°F6.5°C 40% 4.8 mph NNE7.7 kmh NNE 7.4 mph11.9 kmh 29.59 in1002.0 mb 0.00 in0.0 mm 0.00 in0.0 mm 0.00 in0.0 mm
01:05 PM 70.2°F21.2°C 44.2°F6.8°C 39% 2.9 mph N4.7 kmh N 7.4 mph11.9 kmh 29.59 in1002.0 mb 0.00 in0.0 mm 0.00 in0.0 mm 0.00 in0.0 mm
01:10 PM 70.1°F21.2°C 44.3°F6.8°C 40% 5.8 mph N9.3 kmh N 17.4 mph28.0 kmh 29.58 in1001.7 mb 0.00 in0.0 mm 0.00 in0.0 mm 0.00 in0.0 mm
01:15 PM 70.2°F21.2°C 44.6°F7.0°C 40% 4.2 mph NNW6.8 kmh NNW 12.3 mph19.8 kmh 29.58 in1001.7 mb 0.00 in0.0 mm 0.00 in0.0 mm 0.00 in0.0 mm
01:20 PM 70.2°F21.2°C 44.1°F6.7°C 39% 3.2 mph N5.1 kmh N 7.4 mph11.9 kmh 29.58 in1001.7 mb 0.00 in0.0 mm 0.00 in0.0 mm 0.00 in0.0 mm
01:25 PM 70.2°F21.2°C 43.5°F6.4°C 38% 3.6 mph NNW5.8 kmh NNW 7.4 mph11.9 kmh 29.57 in1001.4 mb 0.00 in0.0 mm 0.00 in0.0 mm 0.00 in0.0 mm
01:30 PM 70.3°F21.3°C 43.8°F6.6°C 38% 4.3 mph NW6.9 kmh NW 9.8 mph15.8 kmh 29.57 in1001.4 mb 0.00 in0.0 mm 0.00 in0.0 mm 0.00 in0.0 mm
01:35 PM 70.4°F21.3°C 43.7°F6.5°C 38% 1.7 mph N2.7 kmh N 7.4 mph11.9 kmh 29.57 in1001.4 mb 0.00 in0.0 mm 0.00 in0.0 mm 0.00 in0.0 mm
01:40 PM 70.8°F21.6°C 43.9°F6.6°C 38% 2.4 mph NNW3.9 kmh NNW 7.4 mph11.9 kmh 29.57 in1001.4 mb 0.00 in0.0 mm 0.00 in0.0 mm 0.00 in0.0 mm
01:45 PM 71.9°F22.2°C 43.5°F6.4°C 36% 4.5 mph N7.2 kmh N 9.8 mph15.8 kmh 29.57 in1001.4 mb 0.00 in0.0 mm 0.00 in0.0 mm 0.00 in0.0 mm
01:50 PM 71.8°F22.1°C 42.9°F6.1°C 35% 3.2 mph NE5.1 kmh NE 7.4 mph11.9 kmh 29.57 in1001.4 mb 0.00 in0.0 mm 0.00 in0.0 mm 0.00 in0.0 mm
01:55 PM 71.8°F22.1°C 42.5°F5.8°C 35% 3.4 mph N5.5 kmh N 7.4 mph11.9 kmh 29.56 in1001.0 mb 0.00 in0.0 mm 0.00 in0.0 mm 0.00 in0.0 mm
02:00 PM 71.9°F22.2°C 42.4°F5.8°C 35% 1.7 mph NW2.7 kmh NW 4.9 mph7.9 kmh 29.56 in1001.0 mb 0.00 in0.0 mm 0.00 in0.0 mm 0.00 in0.0 mm
02:05 PM 71.6°F22.0°C 42.6°F5.9°C 35% 3.6 mph N5.8 kmh N 7.4 mph11.9 kmh 29.56 in1001.0 mb 0.00 in0.0 mm 0.00 in0.0 mm 0.00 in0.0 mm
02:10 PM 71.6°F22.0°C 43.3°F6.3°C 36% 2.8 mph N4.5 kmh N 4.9 mph7.9 kmh 29.55 in1000.7 mb 0.00 in0.0 mm 0.00 in0.0 mm 0.00 in0.0 mm
02:15 PM 71.8°F22.1°C 43.3°F6.3°C 36% 4.9 mph N7.9 kmh N 9.8 mph15.8 kmh 29.55 in1000.7 mb 0.00 in0.0 mm 0.00 in0.0 mm 0.00 in0.0 mm
02:20 PM 71.9°F22.2°C 43.8°F6.6°C 36% 4.0 mph N6.4 kmh N 7.4 mph11.9 kmh 29.55 in1000.7 mb 0.00 in0.0 mm 0.00 in0.0 mm 0.00 in0.0 mm
02:25 PM 73.0°F22.8°C 43.7°F6.5°C 35% 1.3 mph NW2.1 kmh NW 4.9 mph7.9 kmh 29.55 in1000.7 mb 0.00 in0.0 mm 0.00 in0.0 mm 0.00 in0.0 mm
02:30 PM 73.0°F22.8°C 43.5°F6.4°C 35% 4.1 mph NW6.6 kmh NW 7.4 mph11.9 kmh 29.54 in1000.3 mb 0.00 in0.0 mm 0.00 in0.0 mm 0.00 in0.0 mm
02:35 PM 73.0°F22.8°C 43.6°F6.4°C 35% 4.1 mph NNW6.6 kmh NNW 7.4 mph11.9 kmh 29.54 in1000.3 mb 0.00 in0.0 mm 0.00 in0.0 mm 0.00 in0.0 mm
02:40 PM 73.2°F22.9°C 43.8°F6.6°C 35% 2.8 mph N4.5 kmh N 7.4 mph11.9 kmh 29.54 in1000.3 mb 0.00 in0.0 mm 0.00 in0.0 mm 0.00 in0.0 mm
02:45 PM 73.6°F23.1°C 43.8°F6.6°C 34% 4.8 mph NNW7.7 kmh NNW 9.8 mph15.8 kmh 29.54 in1000.3 mb 0.00 in0.0 mm 0.00 in0.0 mm 0.00 in0.0 mm
02:50 PM 73.5°F23.1°C 44.2°F6.8°C 35% 1.0 mph NW1.6 kmh NW 2.5 mph4.0 kmh 29.54 in1000.3 mb 0.00 in0.0 mm 0.00 in0.0 mm 0.00 in0.0 mm
02:55 PM 73.7°F23.2°C 43.7°F6.5°C 34% 4.0 mph NNW6.4 kmh NNW 9.8 mph15.8 kmh 29.54 in1000.3 mb 0.00 in0.0 mm 0.00 in0.0 mm 0.00 in0.0 mm
03:00 PM 73.8°F23.2°C 43.7°F6.5°C 34% 3.4 mph NNW5.5 kmh NNW 7.4 mph11.9 kmh 29.53 in1000.0 mb 0.00 in0.0 mm 0.00 in0.0 mm 0.00 in0.0 mm
03:05 PM 74.0°F23.3°C 43.7°F6.5°C 34% 2.5 mph NW4.0 kmh NW 7.4 mph11.9 kmh 29.53 in1000.0 mb 0.00 in0.0 mm 0.00 in0.0 mm 0.00 in0.0 mm
03:10 PM 74.1°F23.4°C 43.8°F6.6°C 34% 4.1 mph N6.6 kmh N 7.4 mph11.9 kmh 29.53 in1000.0 mb 0.00 in0.0 mm 0.00 in0.0 mm 0.00 in0.0 mm
03:15 PM 74.1°F23.4°C 44.4°F6.9°C 35% 5.4 mph NNE8.7 kmh NNE 7.4 mph11.9 kmh 29.53 in1000.0 mb 0.00 in0.0 mm 0.00 in0.0 mm 0.00 in0.0 mm
03:20 PM 74.3°F23.5°C 43.8°F6.6°C 34% 3.7 mph N6.0 kmh N 7.4 mph11.9 kmh 29.53 in1000.0 mb 0.00 in0.0 mm 0.00 in0.0 mm 0.00 in0.0 mm
03:25 PM 74.7°F23.7°C 44.0°F6.7°C 33% 2.3 mph NW3.7 kmh NW 7.4 mph11.9 kmh 29.52 in999.7 mb 0.00 in0.0 mm 0.00 in0.0 mm 0.00 in0.0 mm
03:30 PM 74.7°F23.7°C 42.9°F6.1°C 32% 1.3 mph N2.1 kmh N 4.9 mph7.9 kmh 29.52 in999.7 mb 0.00 in0.0 mm 0.00 in0.0 mm 0.00 in0.0 mm
03:35 PM 74.9°F23.8°C 43.0°F6.1°C 32% 0.9 mph N1.4 kmh N 2.5 mph4.0 kmh 29.52 in999.7 mb 0.00 in0.0 mm 0.00 in0.0 mm 0.00 in0.0 mm
03:40 PM 75.2°F24.0°C 43.5°F6.4°C 32% 2.6 mph NNW4.2 kmh NNW 4.9 mph7.9 kmh 29.52 in999.7 mb 0.00 in0.0 mm 0.00 in0.0 mm 0.00 in0.0 mm
03:45 PM 75.2°F24.0°C 43.5°F6.4°C 32% 1.4 mph N2.3 kmh N 2.5 mph4.0 kmh 29.52 in999.7 mb 0.00 in0.0 mm 0.00 in0.0 mm 0.00 in0.0 mm
03:50 PM 75.2°F24.0°C 43.7°F6.5°C 32% 1.0 mph N1.6 kmh N 4.9 mph7.9 kmh 29.53 in1000.0 mb 0.00 in0.0 mm 0.00 in0.0 mm 0.00 in0.0 mm
03:55 PM 75.4°F24.1°C 44.3°F6.8°C 33% 1.9 mph N3.1 kmh N 4.9 mph7.9 kmh 29.52 in999.7 mb 0.00 in0.0 mm 0.00 in0.0 mm 0.00 in0.0 mm
04:00 PM 75.4°F24.1°C 44.1°F6.7°C 33% 0.9 mph NNE1.4 kmh NNE 4.9 mph7.9 kmh 29.52 in999.7 mb 0.00 in0.0 mm 0.00 in0.0 mm 0.00 in0.0 mm
04:05 PM 75.2°F24.0°C 43.8°F6.6°C 33% 1.3 mph NNW2.1 kmh NNW 4.9 mph7.9 kmh 29.52 in999.7 mb 0.00 in0.0 mm 0.00 in0.0 mm 0.00 in0.0 mm
04:10 PM 75.2°F24.0°C 44.1°F6.7°C 33% 1.7 mph N2.7 kmh N 4.9 mph7.9 kmh 29.52 in999.7 mb 0.00 in0.0 mm 0.00 in0.0 mm 0.00 in0.0 mm
04:15 PM 75.2°F24.0°C 43.7°F6.5°C 32% 3.9 mph N6.3 kmh N 7.4 mph11.9 kmh 29.52 in999.7 mb 0.00 in0.0 mm 0.00 in0.0 mm 0.00 in0.0 mm
04:20 PM 75.2°F24.0°C 43.7°F6.5°C 32% 1.9 mph NNE3.1 kmh NNE 4.9 mph7.9 kmh 29.51 in999.3 mb 0.00 in0.0 mm 0.00 in0.0 mm 0.00 in0.0 mm
04:25 PM 76.0°F24.4°C 45.1°F7.3°C 33% 1.1 mph NW1.8 kmh NW 4.9 mph7.9 kmh 29.51 in999.3 mb 0.00 in0.0 mm 0.00 in0.0 mm 0.00 in0.0 mm
04:30 PM 76.1°F24.5°C 45.7°F7.6°C 34% 2.5 mph NW4.0 kmh NW 4.9 mph7.9 kmh 29.51 in999.3 mb 0.00 in0.0 mm 0.00 in0.0 mm 0.00 in0.0 mm
04:35 PM 76.1°F24.5°C 45.3°F7.4°C 34% 0.5 mph N0.8 kmh N 2.5 mph4.0 kmh 29.51 in999.3 mb 0.00 in0.0 mm 0.00 in0.0 mm 0.00 in0.0 mm
04:40 PM 76.1°F24.5°C 44.6°F7.0°C 33% 0.2 mph NW0.3 kmh NW 2.5 mph4.0 kmh 29.51 in999.3 mb 0.00 in0.0 mm 0.00 in0.0 mm 0.00 in0.0 mm
04:45 PM 76.1°F24.5°C 45.0°F7.2°C 33% 1.3 mph WNW2.1 kmh WNW 4.9 mph7.9 kmh 29.51 in999.3 mb 0.00 in0.0 mm 0.00 in0.0 mm 0.00 in0.0 mm
04:50 PM 76.2°F24.6°C 45.4°F7.4°C 34% 0.9 mph N1.4 kmh N 4.9 mph7.9 kmh 29.51 in999.3 mb 0.00 in0.0 mm 0.00 in0.0 mm 0.00 in0.0 mm
04:55 PM 76.3°F24.6°C 45.4°F7.4°C 33% 0.5 mph NW0.8 kmh NW 2.5 mph4.0 kmh 29.51 in999.3 mb 0.00 in0.0 mm 0.00 in0.0 mm 0.00 in0.0 mm
05:00 PM 76.1°F24.5°C 44.4°F6.9°C 32% 0.2 mph NNW0.3 kmh NNW 2.5 mph4.0 kmh 29.51 in999.3 mb 0.00 in0.0 mm 0.00 in0.0 mm 0.00 in0.0 mm
05:05 PM 76.3°F24.6°C 44.8°F7.1°C 33% 1.4 mph NNW2.3 kmh NNW 2.5 mph4.0 kmh 29.51 in999.3 mb 0.00 in0.0 mm 0.00 in0.0 mm 0.00 in0.0 mm
05:10 PM 76.3°F24.6°C 44.4°F6.9°C 32% 1.2 mph NE1.9 kmh NE 4.9 mph7.9 kmh 29.51 in999.3 mb 0.00 in0.0 mm 0.00 in0.0 mm 0.00 in0.0 mm
05:15 PM 76.3°F24.6°C 44.5°F6.9°C 32% 0.6 mph N1.0 kmh N 2.5 mph4.0 kmh 29.51 in999.3 mb 0.00 in0.0 mm 0.00 in0.0 mm 0.00 in0.0 mm
05:20 PM 76.3°F24.6°C 44.3°F6.8°C 32% 1.9 mph NNW3.1 kmh NNW 4.9 mph7.9 kmh 29.51 in999.3 mb 0.00 in0.0 mm 0.00 in0.0 mm 0.00 in0.0 mm
05:25 PM 76.3°F24.6°C 44.7°F7.1°C 33% 0.8 mph N1.3 kmh N 4.9 mph7.9 kmh 29.51 in999.3 mb 0.00 in0.0 mm 0.00 in0.0 mm 0.00 in0.0 mm
05:30 PM 76.3°F24.6°C 44.6°F7.0°C 32% 2.7 mph N4.3 kmh N 4.9 mph7.9 kmh 29.51 in999.3 mb 0.00 in0.0 mm 0.00 in0.0 mm 0.00 in0.0 mm
05:35 PM 76.2°F24.6°C 44.2°F6.8°C 32% 0.6 mph ENE1.0 kmh ENE 2.5 mph4.0 kmh 29.51 in999.3 mb 0.00 in0.0 mm 0.00 in0.0 mm 0.00 in0.0 mm
05:40 PM 76.1°F24.5°C 44.1°F6.7°C 32% 0.5 mph N0.8 kmh N 2.5 mph4.0 kmh 29.51 in999.3 mb 0.00 in0.0 mm 0.00 in0.0 mm 0.00 in0.0 mm
05:45 PM 76.1°F24.5°C 44.5°F6.9°C 32% 1.0 mph NE1.6 kmh NE 2.5 mph4.0 kmh 29.51 in999.3 mb 0.00 in0.0 mm 0.00 in0.0 mm 0.00 in0.0 mm
05:50 PM 76.1°F24.5°C 44.2°F6.8°C 32% 0.7 mph NNW1.1 kmh NNW 4.9 mph7.9 kmh 29.51 in999.3 mb 0.00 in0.0 mm 0.00 in0.0 mm 0.00 in0.0 mm
05:55 PM 76.1°F24.5°C 44.9°F7.2°C 33% 0.8 mph NNE1.3 kmh NNE 4.9 mph7.9 kmh 29.51 in999.3 mb 0.00 in0.0 mm 0.00 in0.0 mm 0.00 in0.0 mm
06:00 PM 76.1°F24.5°C 44.8°F7.1°C 33% Calm Calm -- 29.51 in999.3 mb 0.00 in0.0 mm 0.00 in0.0 mm 0.00 in0.0 mm
06:05 PM 75.9°F24.4°C 44.7°F7.1°C 33% 0.4 mph NE0.6 kmh NE 2.5 mph4.0 kmh 29.51 in999.3 mb 0.00 in0.0 mm 0.00 in0.0 mm 0.00 in0.0 mm
06:10 PM 75.7°F24.3°C 44.5°F6.9°C 33% 0.3 mph N0.5 kmh N 2.5 mph4.0 kmh 29.51 in999.3 mb 0.00 in0.0 mm 0.00 in0.0 mm 0.00 in0.0 mm
06:15 PM 75.7°F24.3°C 44.5°F6.9°C 33% 1.1 mph N1.8 kmh N 2.5 mph4.0 kmh 29.51 in999.3 mb 0.00 in0.0 mm 0.00 in0.0 mm 0.00 in0.0 mm
06:20 PM 75.6°F24.2°C 44.5°F6.9°C 33% 0.2 mph NE0.3 kmh NE 2.5 mph4.0 kmh 29.50 in999.0 mb 0.00 in0.0 mm 0.00 in0.0 mm 0.00 in0.0 mm
06:25 PM 75.4°F24.1°C 44.6°F7.0°C 33% 0.6 mph NE1.0 kmh NE 2.5 mph4.0 kmh 29.51 in999.3 mb 0.00 in0.0 mm 0.00 in0.0 mm 0.00 in0.0 mm
06:30 PM 75.2°F24.0°C 45.5°F7.5°C 35% Calm Calm 2.5 mph4.0 kmh 29.51 in999.3 mb 0.00 in0.0 mm 0.00 in0.0 mm 0.00 in0.0 mm
06:35 PM 75.1°F23.9°C 45.6°F7.6°C 35% 0.5 mph NNE0.8 kmh NNE 2.5 mph4.0 kmh 29.50 in999.0 mb 0.00 in0.0 mm 0.00 in0.0 mm 0.00 in0.0 mm
06:40 PM 75.0°F23.9°C 45.5°F7.5°C 35% 0.5 mph NNE0.8 kmh NNE 2.5 mph4.0 kmh 29.51 in999.3 mb 0.00 in0.0 mm 0.00 in0.0 mm 0.00 in0.0 mm
06:45 PM 74.6°F23.7°C 45.5°F7.5°C 36% Calm Calm -- 29.50 in999.0 mb 0.00 in0.0 mm 0.00 in0.0 mm 0.00 in0.0 mm
06:50 PM 73.9°F23.3°C 45.6°F7.6°C 36% Calm Calm -- 29.50 in999.0 mb 0.00 in0.0 mm 0.00 in0.0 mm 0.00 in0.0 mm
06:55 PM 73.9°F23.3°C 46.5°F8.1°C 38% Calm Calm -- 29.50 in999.0 mb 0.00 in0.0 mm 0.00 in0.0 mm 0.00 in0.0 mm
07:00 PM 73.7°F23.2°C 47.2°F8.4°C 39% Calm Calm -- 29.50 in999.0 mb 0.00 in0.0 mm 0.00 in0.0 mm 0.00 in0.0 mm
07:05 PM 72.9°F22.7°C 46.9°F8.3°C 40% Calm Calm -- 29.50 in999.0 mb 0.00 in0.0 mm 0.00 in0.0 mm 0.00 in0.0 mm
07:10 PM 72.0°F22.2°C 47.0°F8.3°C 41% Calm Calm -- 29.50 in999.0 mb 0.00 in0.0 mm 0.00 in0.0 mm 0.00 in0.0 mm
07:15 PM 71.9°F22.2°C 47.8°F8.8°C 42% Calm Calm -- 29.50 in999.0 mb 0.00 in0.0 mm 0.00 in0.0 mm 0.00 in0.0 mm
07:20 PM 71.7°F22.1°C 47.8°F8.8°C 43% Calm Calm -- 29.50 in999.0 mb 0.00 in0.0 mm 0.00 in0.0 mm 0.00 in0.0 mm
07:25 PM 71.1°F21.7°C 47.4°F8.6°C 43% Calm Calm -- 29.50 in999.0 mb 0.00 in0.0 mm 0.00 in0.0 mm 0.00 in0.0 mm
07:30 PM 70.0°F21.1°C 46.7°F8.2°C 43% Calm Calm -- 29.50 in999.0 mb 0.00 in0.0 mm 0.00 in0.0 mm 0.00 in0.0 mm
07:35 PM 70.0°F21.1°C 46.9°F8.3°C 44% Calm Calm -- 29.50 in999.0 mb 0.00 in0.0 mm 0.00 in0.0 mm 0.00 in0.0 mm
07:40 PM 70.0°F21.1°C 46.5°F8.1°C 43% Calm Calm -- 29.50 in999.0 mb 0.00 in0.0 mm 0.00 in0.0 mm 0.00 in0.0 mm
07:45 PM 70.0°F21.1°C 46.4°F8.0°C 43% Calm Calm -- 29.50 in999.0 mb 0.00 in0.0 mm 0.00 in0.0 mm 0.00 in0.0 mm
07:50 PM 69.8°F21.0°C 46.1°F7.8°C 43% Calm Calm -- 29.49 in998.6 mb 0.00 in0.0 mm 0.00 in0.0 mm 0.00 in0.0 mm
07:55 PM 70.0°F21.1°C 45.8°F7.7°C 42% Calm Calm -- 29.50 in999.0 mb 0.00 in0.0 mm 0.00 in0.0 mm 0.00 in0.0 mm
08:00 PM 70.0°F21.1°C 46.0°F7.8°C 42% Calm Calm -- 29.50 in999.0 mb 0.00 in0.0 mm 0.00 in0.0 mm 0.00 in0.0 mm
08:05 PM 70.0°F21.1°C 45.9°F7.7°C 42% Calm Calm -- 29.50 in999.0 mb 0.00 in0.0 mm 0.00 in0.0 mm 0.00 in0.0 mm
08:10 PM 70.0°F21.1°C 46.3°F7.9°C 43% Calm Calm -- 29.50 in999.0 mb 0.00 in0.0 mm 0.00 in0.0 mm 0.00 in0.0 mm
08:15 PM 70.0°F21.1°C 47.0°F8.3°C 44% Calm Calm -- 29.50 in999.0 mb 0.00 in0.0 mm 0.00 in0.0 mm 0.00 in0.0 mm
08:20 PM 69.8°F21.0°C 48.0°F8.9°C 46% Calm Calm -- 29.50 in999.0 mb 0.00 in0.0 mm 0.00 in0.0 mm 0.00 in0.0 mm
08:25 PM 69.6°F20.9°C 47.5°F8.6°C 45% Calm Calm -- 29.50 in999.0 mb 0.00 in0.0 mm 0.00 in0.0 mm 0.00 in0.0 mm
08:30 PM 68.9°F20.5°C 47.5°F8.6°C 46% Calm Calm -- 29.50 in999.0 mb 0.00 in0.0 mm 0.00 in0.0 mm 0.00 in0.0 mm
08:35 PM 68.7°F20.4°C 48.4°F9.1°C 48% Calm Calm -- 29.50 in999.0 mb 0.00 in0.0 mm 0.00 in0.0 mm 0.00 in0.0 mm
08:40 PM 68.6°F20.3°C 48.7°F9.3°C 49% Calm Calm -- 29.50 in999.0 mb 0.00 in0.0 mm 0.00 in0.0 mm 0.00 in0.0 mm
08:45 PM 68.2°F20.1°C 48.9°F9.4°C 50% Calm Calm -- 29.50 in999.0 mb 0.00 in0.0 mm 0.00 in0.0 mm 0.00 in0.0 mm
08:50 PM 67.4°F19.7°C 48.0°F8.9°C 50% Calm Calm -- 29.50 in999.0 mb 0.00 in0.0 mm 0.00 in0.0 mm 0.00 in0.0 mm
08:55 PM 67.3°F19.6°C 48.0°F8.9°C 50% Calm Calm -- 29.50 in999.0 mb 0.00 in0.0 mm 0.00 in0.0 mm 0.00 in0.0 mm
09:00 PM 67.3°F19.6°C 48.5°F9.2°C 51% Calm Calm -- 29.50 in999.0 mb 0.00 in0.0 mm 0.00 in0.0 mm 0.00 in0.0 mm
09:05 PM 67.1°F19.5°C 48.3°F9.1°C 51% Calm Calm -- 29.50 in999.0 mb 0.00 in0.0 mm 0.00 in0.0 mm 0.00 in0.0 mm
09:10 PM 66.4°F19.1°C 47.5°F8.6°C 51% Calm Calm -- 29.50 in999.0 mb 0.00 in0.0 mm 0.00 in0.0 mm 0.00 in0.0 mm
09:15 PM 66.5°F19.2°C 46.6°F8.1°C 49% Calm Calm -- 29.50 in999.0 mb 0.00 in0.0 mm 0.00 in0.0 mm 0.00 in0.0 mm
09:20 PM 66.8°F19.3°C 45.6°F7.6°C 46% Calm Calm -- 29.50 in999.0 mb 0.00 in0.0 mm 0.00 in0.0 mm 0.00 in0.0 mm
09:25 PM 67.1°F19.5°C 45.6°F7.6°C 46% Calm Calm -- 29.50 in999.0 mb 0.00 in0.0 mm 0.00 in0.0 mm 0.00 in0.0 mm
09:30 PM 68.0°F20.0°C 48.7°F9.3°C 50% Calm Calm -- 29.50 in999.0 mb 0.00 in0.0 mm 0.00 in0.0 mm 0.00 in0.0 mm
09:35 PM 67.9°F19.9°C 48.8°F9.3°C 50% Calm Calm -- 29.50 in999.0 mb 0.00 in0.0 mm 0.00 in0.0 mm 0.00 in0.0 mm
09:40 PM 67.6°F19.8°C 48.9°F9.4°C 51% Calm Calm -- 29.50 in999.0 mb 0.00 in0.0 mm 0.00 in0.0 mm 0.00 in0.0 mm
09:45 PM 67.4°F19.7°C 48.6°F9.2°C 51% Calm Calm -- 29.50 in999.0 mb 0.00 in0.0 mm 0.00 in0.0 mm 0.00 in0.0 mm
09:50 PM 66.2°F19.0°C 47.5°F8.6°C 51% Calm Calm -- 29.50 in999.0 mb 0.00 in0.0 mm 0.00 in0.0 mm 0.00 in0.0 mm
09:55 PM 66.2°F19.0°C 48.0°F8.9°C 52% Calm Calm -- 29.50 in999.0 mb 0.00 in0.0 mm 0.00 in0.0 mm 0.00 in0.0 mm
10:00 PM 66.0°F18.9°C 48.4°F9.1°C 53% Calm Calm -- 29.50 in999.0 mb 0.00 in0.0 mm 0.00 in0.0 mm 0.00 in0.0 mm
10:05 PM 66.0°F18.9°C 48.3°F9.1°C 53% Calm Calm -- 29.50 in999.0 mb 0.00 in0.0 mm 0.00 in0.0 mm 0.00 in0.0 mm
10:10 PM 65.3°F18.5°C 47.7°F8.7°C 53% Calm Calm -- 29.49 in998.6 mb 0.00 in0.0 mm 0.00 in0.0 mm 0.00 in0.0 mm
10:15 PM 65.3°F18.5°C 47.7°F8.7°C 53% Calm Calm -- 29.50 in999.0 mb 0.00 in0.0 mm 0.00 in0.0 mm 0.00 in0.0 mm
10:20 PM 65.3°F18.5°C 47.7°F8.7°C 53% Calm Calm -- 29.49 in998.6 mb 0.00 in0.0 mm 0.00 in0.0 mm 0.00 in0.0 mm
10:25 PM 65.1°F18.4°C 47.5°F8.6°C 53% Calm Calm -- 29.49 in998.6 mb 0.00 in0.0 mm 0.00 in0.0 mm 0.00 in0.0 mm
10:30 PM 64.4°F18.0°C 47.1°F8.4°C 53% Calm Calm -- 29.49 in998.6 mb 0.00 in0.0 mm 0.00 in0.0 mm 0.00 in0.0 mm
10:35 PM 64.4°F18.0°C 47.4°F8.6°C 54% Calm Calm -- 29.49 in998.6 mb 0.00 in0.0 mm 0.00 in0.0 mm 0.00 in0.0 mm
10:40 PM 64.4°F18.0°C 47.4°F8.6°C 54% Calm Calm -- 29.49 in998.6 mb 0.00 in0.0 mm 0.00 in0.0 mm 0.00 in0.0 mm
10:45 PM 64.2°F17.9°C 47.2°F8.4°C 54% Calm Calm -- 29.49 in998.6 mb 0.00 in0.0 mm 0.00 in0.0 mm 0.00 in0.0 mm
10:50 PM 64.1°F17.8°C 47.2°F8.4°C 54% Calm Calm -- 29.49 in998.6 mb 0.00 in0.0 mm 0.00 in0.0 mm 0.00 in0.0 mm
10:55 PM 64.0°F17.8°C 47.3°F8.5°C 54% Calm Calm -- 29.49 in998.6 mb 0.00 in0.0 mm 0.00 in0.0 mm 0.00 in0.0 mm
11:00 PM 64.1°F17.8°C 47.4°F8.6°C 54% Calm Calm -- 29.49 in998.6 mb 0.00 in0.0 mm 0.00 in0.0 mm 0.00 in0.0 mm
11:05 PM 64.2°F17.9°C 47.6°F8.7°C 55% Calm Calm -- 29.49 in998.6 mb 0.00 in0.0 mm 0.00 in0.0 mm 0.00 in0.0 mm
11:10 PM 64.5°F18.1°C 48.6°F9.2°C 56% Calm Calm -- 29.49 in998.6 mb 0.00 in0.0 mm 0.00 in0.0 mm 0.00 in0.0 mm
11:15 PM 64.4°F18.0°C 49.2°F9.6°C 58% Calm Calm -- 29.49 in998.6 mb 0.00 in0.0 mm 0.00 in0.0 mm 0.00 in0.0 mm
11:20 PM 64.5°F18.1°C 48.7°F9.3°C 56% 0.2 mph SE0.3 kmh SE 2.5 mph4.0 kmh 29.49 in998.6 mb 0.00 in0.0 mm 0.00 in0.0 mm 0.00 in0.0 mm
11:25 PM 64.7°F18.2°C 47.7°F8.7°C 54% 0.4 mph SSE0.6 kmh SSE 2.5 mph4.0 kmh 29.49 in998.6 mb 0.00 in0.0 mm 0.00 in0.0 mm 0.00 in0.0 mm
11:30 PM 65.6°F18.7°C 48.0°F8.9°C 53% 0.2 mph SSE0.3 kmh SSE 2.5 mph4.0 kmh 29.49 in998.6 mb 0.00 in0.0 mm 0.00 in0.0 mm 0.00 in0.0 mm
11:35 PM 66.1°F18.9°C 48.7°F9.3°C 54% 0.1 mph SSE0.2 kmh SSE 2.5 mph4.0 kmh 29.49 in998.6 mb 0.00 in0.0 mm 0.00 in0.0 mm 0.00 in0.0 mm
11:40 PM 66.0°F18.9°C 48.9°F9.4°C 54% 0.7 mph SSE1.1 kmh SSE 2.5 mph4.0 kmh 29.49 in998.6 mb 0.00 in0.0 mm 0.00 in0.0 mm 0.00 in0.0 mm
11:45 PM 66.0°F18.9°C 48.7°F9.3°C 54% 0.5 mph S0.8 kmh S 2.5 mph4.0 kmh 29.49 in998.6 mb 0.00 in0.0 mm 0.00 in0.0 mm 0.00 in0.0 mm
11:50 PM 65.8°F18.8°C 48.9°F9.4°C 54% 0.1 mph S0.2 kmh S 2.5 mph4.0 kmh 29.49 in998.6 mb 0.00 in0.0 mm 0.00 in0.0 mm 0.00 in0.0 mm
11:55 PM 65.7°F18.7°C 49.1°F9.5°C 55% 0.1 mph SSE0.2 kmh SSE 2.5 mph4.0 kmh 29.49 in998.6 mb 0.00 in0.0 mm 0.00 in0.0 mm 0.00 in0.0 mm